sensor_id;sensor_type;location;lat;lon;timestamp;temperature;humidity
41630;DHT22;27322;49.488;8.480;2023-06-26T00:02:17;23.20;86.20
41630;DHT22;27322;49.488;8.480;2023-06-26T00:04:43;23.20;86.70
41630;DHT22;27322;49.488;8.480;2023-06-26T00:07:10;23.20;87.30
41630;DHT22;27322;49.488;8.480;2023-06-26T00:09:35;23.20;87.40
41630;DHT22;27322;49.488;8.480;2023-06-26T00:12:01;23.20;87.70
41630;DHT22;27322;49.488;8.480;2023-06-26T00:14:27;23.20;88.10
41630;DHT22;27322;49.488;8.480;2023-06-26T00:16:52;23.20;87.80
41630;DHT22;27322;49.488;8.480;2023-06-26T00:19:18;23.20;88.00
41630;DHT22;27322;49.488;8.480;2023-06-26T00:21:44;23.20;87.60
41630;DHT22;27322;49.488;8.480;2023-06-26T00:24:12;23.20;87.50
41630;DHT22;27322;49.488;8.480;2023-06-26T00:26:38;23.20;87.00
41630;DHT22;27322;49.488;8.480;2023-06-26T00:29:04;23.30;87.10
41630;DHT22;27322;49.488;8.480;2023-06-26T00:31:30;23.30;86.10
41630;DHT22;27322;49.488;8.480;2023-06-26T00:33:56;23.30;86.20
41630;DHT22;27322;49.488;8.480;2023-06-26T00:36:21;23.30;86.70
41630;DHT22;27322;49.488;8.480;2023-06-26T00:38:49;23.30;87.10
41630;DHT22;27322;49.488;8.480;2023-06-26T00:41:15;23.30;86.90
41630;DHT22;27322;49.488;8.480;2023-06-26T00:43:41;23.30;86.80
41630;DHT22;27322;49.488;8.480;2023-06-26T00:46:09;23.30;87.00
41630;DHT22;27322;49.488;8.480;2023-06-26T00:48:36;23.30;86.40
41630;DHT22;27322;49.488;8.480;2023-06-26T00:51:02;23.30;85.80
41630;DHT22;27322;49.488;8.480;2023-06-26T00:53:28;23.30;85.30
41630;DHT22;27322;49.488;8.480;2023-06-26T00:55:54;23.30;86.40
41630;DHT22;27322;49.488;8.480;2023-06-26T00:58:22;23.30;87.70
41630;DHT22;27322;49.488;8.480;2023-06-26T01:00:49;23.30;88.50
41630;DHT22;27322;49.488;8.480;2023-06-26T01:03:15;23.30;88.50
41630;DHT22;27322;49.488;8.480;2023-06-26T01:05:40;23.20;87.80
41630;DHT22;27322;49.488;8.480;2023-06-26T01:08:07;23.20;87.70
41630;DHT22;27322;49.488;8.480;2023-06-26T01:10:34;23.20;87.80
41630;DHT22;27322;49.488;8.480;2023-06-26T01:12:59;23.20;88.40
41630;DHT22;27322;49.488;8.480;2023-06-26T01:15:25;23.10;88.30
41630;DHT22;27322;49.488;8.480;2023-06-26T01:17:51;23.00;88.00
41630;DHT22;27322;49.488;8.480;2023-06-26T01:20:17;23.00;87.50
41630;DHT22;27322;49.488;8.480;2023-06-26T01:23:07;22.90;87.50
41630;DHT22;27322;49.488;8.480;2023-06-26T01:28:43;22.80;88.20
41630;DHT22;27322;49.488;8.480;2023-06-26T01:31:11;22.70;88.40
41630;DHT22;27322;49.488;8.480;2023-06-26T01:33:38;22.70;89.00
41630;DHT22;27322;49.488;8.480;2023-06-26T01:36:04;22.60;88.80
41630;DHT22;27322;49.488;8.480;2023-06-26T01:38:30;22.60;89.50
41630;DHT22;27322;49.488;8.480;2023-06-26T01:40:56;22.50;90.00
41630;DHT22;27322;49.488;8.480;2023-06-26T01:43:24;22.50;90.20
41630;DHT22;27322;49.488;8.480;2023-06-26T01:45:53;22.50;90.20
41630;DHT22;27322;49.488;8.480;2023-06-26T01:48:23;22.40;90.10
41630;DHT22;27322;49.488;8.480;2023-06-26T01:50:52;22.40;90.20
41630;DHT22;27322;49.488;8.480;2023-06-26T01:53:20;22.40;90.30
41630;DHT22;27322;49.488;8.480;2023-06-26T01:56:01;22.30;90.40
41630;DHT22;27322;49.488;8.480;2023-06-26T01:58:29;22.30;90.70
41630;DHT22;27322;49.488;8.480;2023-06-26T02:00:55;22.30;91.00
41630;DHT22;27322;49.488;8.480;2023-06-26T02:03:20;22.30;91.60
41630;DHT22;27322;49.488;8.480;2023-06-26T02:05:46;22.30;91.60
41630;DHT22;27322;49.488;8.480;2023-06-26T02:08:14;22.30;91.70
41630;DHT22;27322;49.488;8.480;2023-06-26T02:10:40;22.20;91.70
41630;DHT22;27322;49.488;8.480;2023-06-26T02:13:05;22.20;91.70
41630;DHT22;27322;49.488;8.480;2023-06-26T02:15:31;22.10;91.80
41630;DHT22;27322;49.488;8.480;2023-06-26T02:17:56;22.10;91.90
41630;DHT22;27322;49.488;8.480;2023-06-26T02:20:22;22.10;91.90
41630;DHT22;27322;49.488;8.480;2023-06-26T02:22:47;22.00;92.00
41630;DHT22;27322;49.488;8.480;2023-06-26T02:25:14;22.00;92.10
41630;DHT22;27322;49.488;8.480;2023-06-26T02:27:39;22.00;91.80
41630;DHT22;27322;49.488;8.480;2023-06-26T02:30:05;22.10;91.70
41630;DHT22;27322;49.488;8.480;2023-06-26T02:32:31;22.10;91.60
41630;DHT22;27322;49.488;8.480;2023-06-26T02:34:56;22.20;91.80
41630;DHT22;27322;49.488;8.480;2023-06-26T02:37:22;22.20;91.90
41630;DHT22;27322;49.488;8.480;2023-06-26T02:39:47;22.30;92.10
41630;DHT22;27322;49.488;8.480;2023-06-26T02:42:13;22.30;92.20
41630;DHT22;27322;49.488;8.480;2023-06-26T02:44:39;22.30;92.10
41630;DHT22;27322;49.488;8.480;2023-06-26T02:47:05;22.30;92.20
41630;DHT22;27322;49.488;8.480;2023-06-26T02:49:30;22.30;92.10
41630;DHT22;27322;49.488;8.480;2023-06-26T02:51:56;22.30;92.20
41630;DHT22;27322;49.488;8.480;2023-06-26T02:54:21;22.30;92.40
41630;DHT22;27322;49.488;8.480;2023-06-26T02:56:47;22.40;92.40
41630;DHT22;27322;49.488;8.480;2023-06-26T02:59:13;22.40;92.50
41630;DHT22;27322;49.488;8.480;2023-06-26T03:01:39;22.40;92.50
41630;DHT22;27322;49.488;8.480;2023-06-26T03:04:04;22.40;92.60
41630;DHT22;27322;49.488;8.480;2023-06-26T03:06:30;22.50;92.80
41630;DHT22;27322;49.488;8.480;2023-06-26T03:08:55;22.40;92.80
41630;DHT22;27322;49.488;8.480;2023-06-26T03:11:21;22.40;92.90
41630;DHT22;27322;49.488;8.480;2023-06-26T03:13:46;22.40;92.70
41630;DHT22;27322;49.488;8.480;2023-06-26T03:16:12;22.40;92.80
41630;DHT22;27322;49.488;8.480;2023-06-26T03:18:38;22.40;93.00
41630;DHT22;27322;49.488;8.480;2023-06-26T03:21:04;22.50;93.20
41630;DHT22;27322;49.488;8.480;2023-06-26T03:23:29;22.60;92.90
41630;DHT22;27322;49.488;8.480;2023-06-26T03:25:55;22.60;92.90
41630;DHT22;27322;49.488;8.480;2023-06-26T03:28:20;22.60;92.90
41630;DHT22;27322;49.488;8.480;2023-06-26T03:30:46;22.50;93.10
41630;DHT22;27322;49.488;8.480;2023-06-26T03:33:11;22.50;92.90
41630;DHT22;27322;49.488;8.480;2023-06-26T03:35:37;22.50;93.00
41630;DHT22;27322;49.488;8.480;2023-06-26T03:38:04;22.60;92.50
41630;DHT22;27322;49.488;8.480;2023-06-26T03:40:30;22.60;92.10
41630;DHT22;27322;49.488;8.480;2023-06-26T03:42:55;22.60;92.10
41630;DHT22;27322;49.488;8.480;2023-06-26T03:45:21;22.70;92.20
41630;DHT22;27322;49.488;8.480;2023-06-26T03:47:46;22.60;92.30
41630;DHT22;27322;49.488;8.480;2023-06-26T03:50:15;22.60;92.40
41630;DHT22;27322;49.488;8.480;2023-06-26T03:52:40;22.60;92.40
41630;DHT22;27322;49.488;8.480;2023-06-26T03:55:06;22.60;92.50
41630;DHT22;27322;49.488;8.480;2023-06-26T03:57:32;22.60;92.80
41630;DHT22;27322;49.488;8.480;2023-06-26T03:59:57;22.50;92.90
41630;DHT22;27322;49.488;8.480;2023-06-26T04:02:23;22.50;93.10
41630;DHT22;27322;49.488;8.480;2023-06-26T04:04:48;22.40;93.20
41630;DHT22;27322;49.488;8.480;2023-06-26T04:07:14;22.30;93.40
41630;DHT22;27322;49.488;8.480;2023-06-26T04:09:39;22.20;93.70
41630;DHT22;27322;49.488;8.480;2023-06-26T04:12:05;22.20;93.90
41630;DHT22;27322;49.488;8.480;2023-06-26T04:14:31;22.30;94.00
41630;DHT22;27322;49.488;8.480;2023-06-26T04:16:57;22.30;94.00
41630;DHT22;27322;49.488;8.480;2023-06-26T04:19:23;22.30;94.20
41630;DHT22;27322;49.488;8.480;2023-06-26T04:21:49;22.30;94.10
41630;DHT22;27322;49.488;8.480;2023-06-26T04:24:14;22.30;93.80
41630;DHT22;27322;49.488;8.480;2023-06-26T04:26:40;22.30;93.50
41630;DHT22;27322;49.488;8.480;2023-06-26T04:29:06;22.20;93.20
41630;DHT22;27322;49.488;8.480;2023-06-26T04:31:32;22.20;93.30
41630;DHT22;27322;49.488;8.480;2023-06-26T04:33:58;22.20;93.50
41630;DHT22;27322;49.488;8.480;2023-06-26T04:36:24;22.20;93.50
41630;DHT22;27322;49.488;8.480;2023-06-26T04:38:57;22.20;93.50
41630;DHT22;27322;49.488;8.480;2023-06-26T04:41:22;22.40;93.50
41630;DHT22;27322;49.488;8.480;2023-06-26T04:43:48;22.40;92.90
41630;DHT22;27322;49.488;8.480;2023-06-26T04:46:13;22.50;92.80
41630;DHT22;27322;49.488;8.480;2023-06-26T04:48:39;22.50;92.70
41630;DHT22;27322;49.488;8.480;2023-06-26T04:51:04;22.50;92.50
41630;DHT22;27322;49.488;8.480;2023-06-26T04:53:30;22.50;92.80
41630;DHT22;27322;49.488;8.480;2023-06-26T04:55:56;22.50;92.90
41630;DHT22;27322;49.488;8.480;2023-06-26T04:58:21;22.50;92.80
41630;DHT22;27322;49.488;8.480;2023-06-26T05:00:47;22.40;92.90
41630;DHT22;27322;49.488;8.480;2023-06-26T05:03:14;22.40;92.80
41630;DHT22;27322;49.488;8.480;2023-06-26T05:05:40;22.30;92.90
41630;DHT22;27322;49.488;8.480;2023-06-26T05:08:21;22.30;92.70
41630;DHT22;27322;49.488;8.480;2023-06-26T05:10:47;22.20;92.80
41630;DHT22;27322;49.488;8.480;2023-06-26T05:13:13;22.20;92.70
41630;DHT22;27322;49.488;8.480;2023-06-26T05:15:46;22.30;92.90
41630;DHT22;27322;49.488;8.480;2023-06-26T05:18:12;22.30;92.90
41630;DHT22;27322;49.488;8.480;2023-06-26T05:20:38;22.30;93.10
41630;DHT22;27322;49.488;8.480;2023-06-26T05:23:04;22.40;93.00
41630;DHT22;27322;49.488;8.480;2023-06-26T05:25:31;22.40;92.90
41630;DHT22;27322;49.488;8.480;2023-06-26T05:27:57;22.40;92.80
41630;DHT22;27322;49.488;8.480;2023-06-26T05:30:24;22.40;92.90
41630;DHT22;27322;49.488;8.480;2023-06-26T05:32:54;22.30;92.80
41630;DHT22;27322;49.488;8.480;2023-06-26T05:35:20;22.30;93.10
41630;DHT22;27322;49.488;8.480;2023-06-26T05:37:50;22.40;92.70
41630;DHT22;27322;49.488;8.480;2023-06-26T05:40:17;22.40;92.70
41630;DHT22;27322;49.488;8.480;2023-06-26T05:42:43;22.40;92.80
41630;DHT22;27322;49.488;8.480;2023-06-26T05:45:09;22.40;92.70
41630;DHT22;27322;49.488;8.480;2023-06-26T05:47:35;22.40;92.70
41630;DHT22;27322;49.488;8.480;2023-06-26T05:50:01;22.40;92.70
41630;DHT22;27322;49.488;8.480;2023-06-26T05:52:27;22.40;92.60
41630;DHT22;27322;49.488;8.480;2023-06-26T05:54:53;22.50;92.80
41630;DHT22;27322;49.488;8.480;2023-06-26T05:57:20;22.40;92.70
41630;DHT22;27322;49.488;8.480;2023-06-26T05:59:46;22.50;92.90
41630;DHT22;27322;49.488;8.480;2023-06-26T06:02:12;22.50;92.80
41630;DHT22;27322;49.488;8.480;2023-06-26T06:04:38;22.60;92.80
41630;DHT22;27322;49.488;8.480;2023-06-26T06:07:04;22.60;92.60
41630;DHT22;27322;49.488;8.480;2023-06-26T06:09:30;22.70;92.90
41630;DHT22;27322;49.488;8.480;2023-06-26T06:11:55;22.80;92.70
41630;DHT22;27322;49.488;8.480;2023-06-26T06:14:21;23.00;92.40
41630;DHT22;27322;49.488;8.480;2023-06-26T06:16:46;23.10;91.70
41630;DHT22;27322;49.488;8.480;2023-06-26T06:19:12;23.10;91.50
41630;DHT22;27322;49.488;8.480;2023-06-26T06:21:39;23.10;91.70
41630;DHT22;27322;49.488;8.480;2023-06-26T06:24:05;23.20;91.40
41630;DHT22;27322;49.488;8.480;2023-06-26T06:26:32;23.10;91.50
41630;DHT22;27322;49.488;8.480;2023-06-26T06:28:57;23.20;91.60
41630;DHT22;27322;49.488;8.480;2023-06-26T06:31:23;23.20;91.50
41630;DHT22;27322;49.488;8.480;2023-06-26T06:33:49;23.20;91.40
41630;DHT22;27322;49.488;8.480;2023-06-26T06:36:14;23.20;91.30
41630;DHT22;27322;49.488;8.480;2023-06-26T06:38:43;23.20;91.30
41630;DHT22;27322;49.488;8.480;2023-06-26T06:41:09;23.20;91.80
41630;DHT22;27322;49.488;8.480;2023-06-26T06:43:34;23.40;91.60
41630;DHT22;27322;49.488;8.480;2023-06-26T06:46:00;23.50;90.80
41630;DHT22;27322;49.488;8.480;2023-06-26T06:48:26;23.60;91.10
41630;DHT22;27322;49.488;8.480;2023-06-26T06:50:52;23.60;91.20
41630;DHT22;27322;49.488;8.480;2023-06-26T06:53:18;23.70;91.40
41630;DHT22;27322;49.488;8.480;2023-06-26T06:55:46;23.70;91.00
41630;DHT22;27322;49.488;8.480;2023-06-26T06:58:11;23.80;91.10
41630;DHT22;27322;49.488;8.480;2023-06-26T07:00:37;23.80;91.20
41630;DHT22;27322;49.488;8.480;2023-06-26T07:03:02;23.90;91.10
41630;DHT22;27322;49.488;8.480;2023-06-26T07:05:29;24.00;91.10
41630;DHT22;27322;49.488;8.480;2023-06-26T07:07:55;24.00;91.00
41630;DHT22;27322;49.488;8.480;2023-06-26T07:10:20;24.10;90.70
41630;DHT22;27322;49.488;8.480;2023-06-26T07:12:46;24.10;90.60
41630;DHT22;27322;49.488;8.480;2023-06-26T07:15:12;24.20;90.70
41630;DHT22;27322;49.488;8.480;2023-06-26T07:17:38;24.30;90.50
41630;DHT22;27322;49.488;8.480;2023-06-26T07:20:05;24.30;90.60
41630;DHT22;27322;49.488;8.480;2023-06-26T07:22:36;24.40;90.70
41630;DHT22;27322;49.488;8.480;2023-06-26T07:25:02;24.40;90.40
41630;DHT22;27322;49.488;8.480;2023-06-26T07:27:29;24.50;90.40
41630;DHT22;27322;49.488;8.480;2023-06-26T07:29:55;24.50;90.50
41630;DHT22;27322;49.488;8.480;2023-06-26T07:32:20;24.60;90.80
41630;DHT22;27322;49.488;8.480;2023-06-26T07:34:46;24.60;90.90
41630;DHT22;27322;49.488;8.480;2023-06-26T07:37:11;24.60;91.00
41630;DHT22;27322;49.488;8.480;2023-06-26T07:39:37;24.60;90.70
41630;DHT22;27322;49.488;8.480;2023-06-26T07:42:03;24.80;90.60
41630;DHT22;27322;49.488;8.480;2023-06-26T07:44:28;24.80;90.50
41630;DHT22;27322;49.488;8.480;2023-06-26T07:46:54;24.90;90.60
41630;DHT22;27322;49.488;8.480;2023-06-26T07:49:19;25.00;90.40
41630;DHT22;27322;49.488;8.480;2023-06-26T07:51:45;25.00;90.40
41630;DHT22;27322;49.488;8.480;2023-06-26T07:54:11;25.10;90.60
41630;DHT22;27322;49.488;8.480;2023-06-26T07:56:53;25.10;90.40
41630;DHT22;27322;49.488;8.480;2023-06-26T07:59:22;25.20;90.50
41630;DHT22;27322;49.488;8.480;2023-06-26T08:01:51;25.30;90.60
41630;DHT22;27322;49.488;8.480;2023-06-26T08:04:18;25.30;90.00
41630;DHT22;27322;49.488;8.480;2023-06-26T08:06:49;25.40;90.10
41630;DHT22;27322;49.488;8.480;2023-06-26T08:09:15;25.40;90.20
41630;DHT22;27322;49.488;8.480;2023-06-26T08:11:40;25.50;90.20
41630;DHT22;27322;49.488;8.480;2023-06-26T08:14:06;25.50;90.40
41630;DHT22;27322;49.488;8.480;2023-06-26T08:16:32;25.60;90.40
41630;DHT22;27322;49.488;8.480;2023-06-26T08:18:58;25.70;90.30
41630;DHT22;27322;49.488;8.480;2023-06-26T08:21:23;25.80;90.00
41630;DHT22;27322;49.488;8.480;2023-06-26T08:23:49;25.80;90.10
41630;DHT22;27322;49.488;8.480;2023-06-26T08:26:14;25.90;89.60
41630;DHT22;27322;49.488;8.480;2023-06-26T08:28:40;26.00;88.90
41630;DHT22;27322;49.488;8.480;2023-06-26T08:31:06;26.10;89.00
41630;DHT22;27322;49.488;8.480;2023-06-26T08:33:31;26.20;88.80
41630;DHT22;27322;49.488;8.480;2023-06-26T08:35:57;26.30;88.60
41630;DHT22;27322;49.488;8.480;2023-06-26T08:38:22;26.30;87.40
41630;DHT22;27322;49.488;8.480;2023-06-26T08:40:48;26.40;88.20
41630;DHT22;27322;49.488;8.480;2023-06-26T08:43:14;26.40;87.60
41630;DHT22;27322;49.488;8.480;2023-06-26T08:45:39;26.40;85.60
41630;DHT22;27322;49.488;8.480;2023-06-26T08:48:07;26.40;85.30
41630;DHT22;27322;49.488;8.480;2023-06-26T08:50:35;26.40;85.60
41630;DHT22;27322;49.488;8.480;2023-06-26T08:53:04;26.40;84.80
41630;DHT22;27322;49.488;8.480;2023-06-26T08:55:33;26.40;83.80
41630;DHT22;27322;49.488;8.480;2023-06-26T08:58:01;26.30;84.80
41630;DHT22;27322;49.488;8.480;2023-06-26T09:00:27;26.30;84.70
41630;DHT22;27322;49.488;8.480;2023-06-26T09:02:53;26.40;85.60
41630;DHT22;27322;49.488;8.480;2023-06-26T09:05:19;26.40;84.30
41630;DHT22;27322;49.488;8.480;2023-06-26T09:07:45;26.40;84.00
41630;DHT22;27322;49.488;8.480;2023-06-26T09:10:10;26.50;83.90
41630;DHT22;27322;49.488;8.480;2023-06-26T09:12:37;26.50;82.60
41630;DHT22;27322;49.488;8.480;2023-06-26T09:15:04;26.60;84.00
41630;DHT22;27322;49.488;8.480;2023-06-26T09:17:32;26.60;84.30
41630;DHT22;27322;49.488;8.480;2023-06-26T09:19:58;26.70;83.40
41630;DHT22;27322;49.488;8.480;2023-06-26T09:22:24;26.80;83.20
41630;DHT22;27322;49.488;8.480;2023-06-26T09:24:50;26.90;82.70
41630;DHT22;27322;49.488;8.480;2023-06-26T09:27:17;26.90;81.70
41630;DHT22;27322;49.488;8.480;2023-06-26T09:29:45;27.00;80.40
41630;DHT22;27322;49.488;8.480;2023-06-26T09:32:13;27.00;81.20
41630;DHT22;27322;49.488;8.480;2023-06-26T09:34:41;27.00;81.10
41630;DHT22;27322;49.488;8.480;2023-06-26T09:37:08;27.10;81.30
41630;DHT22;27322;49.488;8.480;2023-06-26T09:39:33;27.10;80.30
41630;DHT22;27322;49.488;8.480;2023-06-26T09:41:59;27.10;81.60
41630;DHT22;27322;49.488;8.480;2023-06-26T09:44:27;27.20;80.10
41630;DHT22;27322;49.488;8.480;2023-06-26T09:46:55;27.30;79.80
41630;DHT22;27322;49.488;8.480;2023-06-26T09:49:20;27.30;80.30
41630;DHT22;27322;49.488;8.480;2023-06-26T09:51:46;27.30;80.20
41630;DHT22;27322;49.488;8.480;2023-06-26T09:54:12;27.30;80.30
41630;DHT22;27322;49.488;8.480;2023-06-26T09:56:38;27.40;80.60
41630;DHT22;27322;49.488;8.480;2023-06-26T09:59:04;27.50;80.40
41630;DHT22;27322;49.488;8.480;2023-06-26T10:01:32;27.50;80.70
41630;DHT22;27322;49.488;8.480;2023-06-26T10:03:58;27.60;80.70
41630;DHT22;27322;49.488;8.480;2023-06-26T10:06:34;27.60;80.00
41630;DHT22;27322;49.488;8.480;2023-06-26T10:09:02;27.60;79.10
41630;DHT22;27322;49.488;8.480;2023-06-26T10:14:22;27.50;80.00
41630;DHT22;27322;49.488;8.480;2023-06-26T10:16:50;27.50;79.00
41630;DHT22;27322;49.488;8.480;2023-06-26T10:19:18;27.40;79.60
41630;DHT22;27322;49.488;8.480;2023-06-26T10:21:53;27.50;79.40
41630;DHT22;27322;49.488;8.480;2023-06-26T10:24:21;27.50;78.30
41630;DHT22;27322;49.488;8.480;2023-06-26T10:26:51;27.50;79.80
41630;DHT22;27322;49.488;8.480;2023-06-26T10:29:19;27.50;81.00
41630;DHT22;27322;49.488;8.480;2023-06-26T10:31:50;27.50;80.30
41630;DHT22;27322;49.488;8.480;2023-06-26T10:34:15;27.50;81.10
41630;DHT22;27322;49.488;8.480;2023-06-26T10:36:41;27.60;79.90
41630;DHT22;27322;49.488;8.480;2023-06-26T10:39:07;27.60;80.70
41630;DHT22;27322;49.488;8.480;2023-06-26T10:41:38;27.70;80.40
41630;DHT22;27322;49.488;8.480;2023-06-26T10:44:09;27.60;80.00
41630;DHT22;27322;49.488;8.480;2023-06-26T10:46:55;27.60;79.40
41630;DHT22;27322;49.488;8.480;2023-06-26T10:49:25;27.60;79.50
41630;DHT22;27322;49.488;8.480;2023-06-26T10:51:51;27.50;79.50
41630;DHT22;27322;49.488;8.480;2023-06-26T10:54:19;27.50;79.80
41630;DHT22;27322;49.488;8.480;2023-06-26T10:56:48;27.40;80.20
41630;DHT22;27322;49.488;8.480;2023-06-26T11:01:42;27.30;80.50
41630;DHT22;27322;49.488;8.480;2023-06-26T11:04:08;27.40;80.30
41630;DHT22;27322;49.488;8.480;2023-06-26T11:06:37;27.40;79.50
41630;DHT22;27322;49.488;8.480;2023-06-26T11:14:21;27.50;79.70
41630;DHT22;27322;49.488;8.480;2023-06-26T11:16:47;27.50;80.20
41630;DHT22;27322;49.488;8.480;2023-06-26T11:19:14;27.50;80.50
41630;DHT22;27322;49.488;8.480;2023-06-26T11:21:40;27.60;80.90
41630;DHT22;27322;49.488;8.480;2023-06-26T11:24:08;27.70;80.20
41630;DHT22;27322;49.488;8.480;2023-06-26T11:26:41;27.80;80.50
41630;DHT22;27322;49.488;8.480;2023-06-26T11:29:07;27.80;80.70
41630;DHT22;27322;49.488;8.480;2023-06-26T11:31:35;27.90;80.60
41630;DHT22;27322;49.488;8.480;2023-06-26T11:34:10;27.90;80.20
41630;DHT22;27322;49.488;8.480;2023-06-26T11:36:38;28.00;79.10
41630;DHT22;27322;49.488;8.480;2023-06-26T11:39:05;28.00;79.60
41630;DHT22;27322;49.488;8.480;2023-06-26T11:41:32;28.10;78.30
41630;DHT22;27322;49.488;8.480;2023-06-26T11:44:16;28.10;77.40
41630;DHT22;27322;49.488;8.480;2023-06-26T11:46:45;28.10;78.20
41630;DHT22;27322;49.488;8.480;2023-06-26T11:49:11;28.10;77.50
41630;DHT22;27322;49.488;8.480;2023-06-26T11:51:36;28.10;76.50
41630;DHT22;27322;49.488;8.480;2023-06-26T11:54:03;28.10;77.10
41630;DHT22;27322;49.488;8.480;2023-06-26T11:56:29;28.20;75.20
41630;DHT22;27322;49.488;8.480;2023-06-26T11:59:11;28.20;76.90
41630;DHT22;27322;49.488;8.480;2023-06-26T12:01:41;28.30;75.30
41630;DHT22;27322;49.488;8.480;2023-06-26T12:04:09;28.30;76.10
41630;DHT22;27322;49.488;8.480;2023-06-26T12:06:37;28.30;76.30
41630;DHT22;27322;49.488;8.480;2023-06-26T12:09:05;28.30;74.60
41630;DHT22;27322;49.488;8.480;2023-06-26T12:11:34;28.30;74.50
41630;DHT22;27322;49.488;8.480;2023-06-26T12:14:00;28.40;73.30
41630;DHT22;27322;49.488;8.480;2023-06-26T12:16:30;28.50;71.60
41630;DHT22;27322;49.488;8.480;2023-06-26T12:19:06;28.50;72.80
41630;DHT22;27322;49.488;8.480;2023-06-26T12:24:04;28.50;70.70
41630;DHT22;27322;49.488;8.480;2023-06-26T12:26:30;28.40;69.30
41630;DHT22;27322;49.488;8.480;2023-06-26T12:29:17;28.40;69.00
41630;DHT22;27322;49.488;8.480;2023-06-26T12:31:45;28.40;69.20
41630;DHT22;27322;49.488;8.480;2023-06-26T12:34:13;28.40;68.50
41630;DHT22;27322;49.488;8.480;2023-06-26T12:36:43;28.40;67.60
41630;DHT22;27322;49.488;8.480;2023-06-26T12:39:10;28.40;68.30
41630;DHT22;27322;49.488;8.480;2023-06-26T12:41:48;28.40;68.60
41630;DHT22;27322;49.488;8.480;2023-06-26T12:44:18;28.30;66.30
41630;DHT22;27322;49.488;8.480;2023-06-26T12:46:46;28.30;66.40
41630;DHT22;27322;49.488;8.480;2023-06-26T12:49:12;28.30;67.00
41630;DHT22;27322;49.488;8.480;2023-06-26T12:51:38;28.30;66.40
41630;DHT22;27322;49.488;8.480;2023-06-26T12:54:05;28.40;65.60
41630;DHT22;27322;49.488;8.480;2023-06-26T12:56:31;28.40;66.60
41630;DHT22;27322;49.488;8.480;2023-06-26T12:58:56;28.40;63.40
41630;DHT22;27322;49.488;8.480;2023-06-26T13:01:22;28.50;66.00
41630;DHT22;27322;49.488;8.480;2023-06-26T13:03:50;28.40;62.80
41630;DHT22;27322;49.488;8.480;2023-06-26T13:06:16;28.40;63.30
41630;DHT22;27322;49.488;8.480;2023-06-26T13:08:42;28.40;64.10
41630;DHT22;27322;49.488;8.480;2023-06-26T13:11:09;28.40;62.80
41630;DHT22;27322;49.488;8.480;2023-06-26T13:13:34;28.40;66.50
41630;DHT22;27322;49.488;8.480;2023-06-26T13:16:00;28.40;66.00
41630;DHT22;27322;49.488;8.480;2023-06-26T13:18:26;28.40;65.40
41630;DHT22;27322;49.488;8.480;2023-06-26T13:20:51;28.40;65.40
41630;DHT22;27322;49.488;8.480;2023-06-26T13:23:17;28.40;65.00
41630;DHT22;27322;49.488;8.480;2023-06-26T13:25:44;28.30;65.30
41630;DHT22;27322;49.488;8.480;2023-06-26T13:28:10;28.30;65.10
41630;DHT22;27322;49.488;8.480;2023-06-26T13:30:36;28.30;64.80
41630;DHT22;27322;49.488;8.480;2023-06-26T13:33:01;28.30;65.10
41630;DHT22;27322;49.488;8.480;2023-06-26T13:35:27;28.30;65.10
41630;DHT22;27322;49.488;8.480;2023-06-26T13:37:52;28.40;63.70
41630;DHT22;27322;49.488;8.480;2023-06-26T13:40:18;28.40;65.70
41630;DHT22;27322;49.488;8.480;2023-06-26T13:42:44;28.40;64.60
41630;DHT22;27322;49.488;8.480;2023-06-26T13:45:10;28.40;64.20
41630;DHT22;27322;49.488;8.480;2023-06-26T13:47:35;28.50;64.50
41630;DHT22;27322;49.488;8.480;2023-06-26T13:50:04;28.60;63.90
41630;DHT22;27322;49.488;8.480;2023-06-26T13:52:29;28.60;62.80
41630;DHT22;27322;49.488;8.480;2023-06-26T13:54:55;28.60;63.00
41630;DHT22;27322;49.488;8.480;2023-06-26T13:57:21;28.60;63.00
41630;DHT22;27322;49.488;8.480;2023-06-26T13:59:47;28.50;63.70
41630;DHT22;27322;49.488;8.480;2023-06-26T14:02:13;28.50;62.20
41630;DHT22;27322;49.488;8.480;2023-06-26T14:04:39;28.40;62.00
41630;DHT22;27322;49.488;8.480;2023-06-26T14:07:05;28.40;61.40
41630;DHT22;27322;49.488;8.480;2023-06-26T14:09:32;28.40;60.20
41630;DHT22;27322;49.488;8.480;2023-06-26T14:11:58;28.40;61.30
41630;DHT22;27322;49.488;8.480;2023-06-26T14:14:23;28.40;58.40
41630;DHT22;27322;49.488;8.480;2023-06-26T14:16:49;28.30;59.30
41630;DHT22;27322;49.488;8.480;2023-06-26T14:19:15;28.30;59.50
41630;DHT22;27322;49.488;8.480;2023-06-26T14:21:42;28.30;58.40
41630;DHT22;27322;49.488;8.480;2023-06-26T14:24:09;28.30;55.60
41630;DHT22;27322;49.488;8.480;2023-06-26T14:26:35;28.30;59.90
41630;DHT22;27322;49.488;8.480;2023-06-26T14:29:02;28.20;59.80
41630;DHT22;27322;49.488;8.480;2023-06-26T14:31:28;28.10;56.70
41630;DHT22;27322;49.488;8.480;2023-06-26T14:33:57;28.00;55.20
41630;DHT22;27322;49.488;8.480;2023-06-26T14:36:24;28.10;57.30
41630;DHT22;27322;49.488;8.480;2023-06-26T14:38:50;28.00;57.30
41630;DHT22;27322;49.488;8.480;2023-06-26T14:41:15;27.90;54.40
41630;DHT22;27322;49.488;8.480;2023-06-26T14:43:41;27.90;55.60
41630;DHT22;27322;49.488;8.480;2023-06-26T14:46:06;27.90;58.40
41630;DHT22;27322;49.488;8.480;2023-06-26T14:48:32;27.90;57.20
41630;DHT22;27322;49.488;8.480;2023-06-26T14:50:58;27.90;57.50
41630;DHT22;27322;49.488;8.480;2023-06-26T14:53:25;27.90;55.50
41630;DHT22;27322;49.488;8.480;2023-06-26T14:55:51;27.80;55.30
41630;DHT22;27322;49.488;8.480;2023-06-26T14:58:16;27.90;55.30
41630;DHT22;27322;49.488;8.480;2023-06-26T15:00:42;27.90;56.80
41630;DHT22;27322;49.488;8.480;2023-06-26T15:03:09;27.90;55.00
41630;DHT22;27322;49.488;8.480;2023-06-26T15:05:34;28.00;55.20
41630;DHT22;27322;49.488;8.480;2023-06-26T15:08:00;28.00;55.30
41630;DHT22;27322;49.488;8.480;2023-06-26T15:10:26;28.00;55.00
41630;DHT22;27322;49.488;8.480;2023-06-26T15:12:52;28.10;55.20
41630;DHT22;27322;49.488;8.480;2023-06-26T15:15:18;28.00;55.50
41630;DHT22;27322;49.488;8.480;2023-06-26T15:17:43;28.00;55.80
41630;DHT22;27322;49.488;8.480;2023-06-26T15:20:09;28.00;58.20
41630;DHT22;27322;49.488;8.480;2023-06-26T15:22:35;27.90;56.70
41630;DHT22;27322;49.488;8.480;2023-06-26T15:25:00;27.80;57.00
41630;DHT22;27322;49.488;8.480;2023-06-26T15:27:26;27.80;56.80
41630;DHT22;27322;49.488;8.480;2023-06-26T15:29:52;27.70;55.60
41630;DHT22;27322;49.488;8.480;2023-06-26T15:32:17;27.70;57.00
41630;DHT22;27322;49.488;8.480;2023-06-26T15:34:43;27.60;56.00
41630;DHT22;27322;49.488;8.480;2023-06-26T15:37:08;27.60;57.40
41630;DHT22;27322;49.488;8.480;2023-06-26T15:39:34;27.60;58.60
41630;DHT22;27322;49.488;8.480;2023-06-26T15:41:59;27.60;55.70
41630;DHT22;27322;49.488;8.480;2023-06-26T15:44:25;27.50;57.20